createdAt,value
2022-11-28T00:01:42.978Z,23.90
2022-11-28T00:04:11.848Z,25.40
2022-11-28T00:06:45.264Z,25.50
2022-11-28T00:09:14.442Z,26.70
2022-11-28T00:11:44.414Z,27.40
2022-11-28T00:14:12.784Z,25.50
2022-11-28T00:16:40.705Z,27.60
2022-11-28T00:19:09.270Z,25.40
2022-11-28T00:21:36.976Z,29.10
2022-11-28T00:24:04.937Z,29.50
2022-11-28T00:26:36.199Z,29.50
2022-11-28T00:29:06.226Z,31.60
2022-11-28T00:31:42.038Z,30.80
2022-11-28T00:34:12.511Z,33.00
2022-11-28T00:36:40.621Z,33.50
2022-11-28T00:39:08.356Z,33.80
2022-11-28T00:41:36.113Z,30.50
2022-11-28T00:44:04.323Z,30.20
2022-11-28T00:46:32.017Z,30.90
2022-11-28T00:49:00.134Z,31.40
2022-11-28T00:51:30.885Z,28.50
2022-11-28T00:54:01.033Z,26.60
2022-11-28T00:56:32.416Z,25.20
2022-11-28T00:59:00.656Z,25.80
2022-11-28T01:01:33.616Z,27.50
2022-11-28T01:04:03.768Z,27.80
2022-11-28T01:06:35.370Z,28.00
2022-11-28T01:09:07.278Z,27.90
2022-11-28T01:11:35.627Z,28.00
2022-11-28T01:14:03.802Z,28.00
2022-11-28T01:16:31.767Z,28.60
2022-11-28T01:18:59.629Z,29.70
2022-11-28T01:21:27.948Z,29.40
2022-11-28T01:23:55.952Z,29.50
2022-11-28T01:26:27.184Z,28.80
2022-11-28T01:28:55.929Z,30.00
2022-11-28T01:31:26.964Z,30.00
2022-11-28T01:33:58.802Z,30.80
2022-11-28T01:36:27.281Z,31.20
2022-11-28T01:38:55.387Z,32.80
2022-11-28T01:41:27.602Z,32.70
2022-11-28T01:44:31.722Z,30.80
2022-11-28T01:46:59.502Z,31.80
2022-11-28T01:49:34.737Z,30.80
2022-11-28T01:52:08.178Z,32.60
2022-11-28T01:54:37.689Z,31.70
2022-11-28T01:57:09.522Z,32.70
2022-11-28T01:59:41.819Z,32.20
2022-11-28T02:02:18.164Z,33.80
2022-11-28T02:04:46.812Z,31.70
2022-11-28T02:07:14.940Z,33.20
2022-11-28T02:09:42.780Z,33.00
2022-11-28T02:12:27.976Z,30.60
2022-11-28T02:15:11.888Z,29.70
2022-11-28T02:18:01.512Z,30.90
2022-11-28T02:21:04.023Z,30.30
2022-11-28T02:23:54.141Z,28.60
2022-11-28T02:26:54.412Z,30.70
2022-11-28T02:29:48.719Z,28.00
2022-11-28T02:32:26.631Z,29.70
2022-11-28T02:35:04.485Z,28.30
2022-11-28T02:37:46.861Z,30.80
2022-11-28T02:40:25.047Z,27.80
2022-11-28T02:43:08.319Z,26.20
2022-11-28T02:45:46.934Z,26.50
2022-11-28T02:48:31.689Z,26.30
2022-11-28T02:51:08.948Z,25.30
2022-11-28T02:53:37.804Z,28.00
2022-11-28T02:56:05.972Z,28.00
2022-11-28T02:58:33.657Z,27.10
2022-11-28T03:01:01.599Z,26.10
2022-11-28T03:03:55.927Z,25.20
2022-11-28T03:06:37.597Z,26.60
2022-11-28T03:09:34.375Z,24.60
2022-11-28T03:12:37.161Z,26.60
2022-11-28T03:15:07.708Z,28.30
2022-11-28T03:17:54.810Z,28.20
2022-11-28T03:23:17.807Z,27.80
2022-11-28T03:25:57.677Z,28.30
2022-11-28T03:28:38.108Z,33.20
2022-11-28T03:31:13.920Z,29.50
2022-11-28T03:33:49.014Z,29.70
2022-11-28T03:36:22.157Z,29.30
2022-11-28T03:38:56.748Z,30.80
2022-11-28T03:41:34.368Z,29.10
2022-11-28T03:44:05.301Z,26.90
2022-11-28T03:46:41.651Z,28.80
2022-11-28T03:49:11.763Z,26.70
2022-11-28T03:51:46.762Z,25.60
2022-11-28T03:54:23.090Z,25.10
2022-11-28T03:57:04.746Z,25.40
2022-11-28T03:59:51.073Z,24.60
2022-11-28T04:02:41.566Z,24.90
2022-11-28T04:05:34.466Z,23.70
2022-11-28T04:08:21.835Z,23.30
2022-11-28T04:11:02.113Z,23.50
2022-11-28T04:13:39.960Z,23.30
2022-11-28T04:16:19.127Z,24.30
2022-11-28T04:19:02.005Z,24.00
2022-11-28T04:21:35.876Z,26.10
2022-11-28T04:24:09.583Z,27.90
2022-11-28T04:26:45.433Z,26.60
2022-11-28T04:29:17.277Z,29.10
2022-11-28T04:31:46.484Z,28.40
2022-11-28T04:34:18.143Z,27.90
2022-11-28T04:36:48.074Z,28.50
2022-11-28T04:39:20.027Z,26.70
2022-11-28T04:41:53.627Z,29.60
2022-11-28T04:44:29.746Z,28.80
2022-11-28T04:46:58.393Z,27.80
2022-11-28T04:49:28.337Z,31.30
2022-11-28T04:52:08.493Z,30.10
2022-11-28T04:55:05.253Z,29.80
2022-11-28T04:57:37.573Z,33.30
2022-11-28T05:00:09.284Z,35.90
2022-11-28T05:02:39.139Z,36.60
2022-11-28T05:05:11.425Z,35.10
2022-11-28T05:07:39.370Z,36.60
2022-11-28T05:10:07.864Z,36.10
2022-11-28T05:12:35.747Z,34.60
2022-11-28T05:15:04.597Z,35.30
2022-11-28T05:17:32.331Z,32.30
2022-11-28T05:20:00.170Z,30.30
2022-11-28T05:22:28.041Z,30.80
2022-11-28T05:24:55.703Z,28.60
2022-11-28T05:27:23.451Z,30.60
2022-11-28T05:29:53.250Z,32.00
2022-11-28T05:32:21.218Z,33.50
2022-11-28T05:34:49.542Z,32.10
2022-11-28T05:37:17.428Z,33.90
2022-11-28T05:39:45.455Z,34.90
2022-11-28T05:42:13.301Z,35.80
2022-11-28T05:44:41.041Z,36.20
2022-11-28T05:47:08.865Z,35.70
2022-11-28T05:49:36.578Z,36.60
2022-11-28T05:52:04.788Z,37.70
2022-11-28T05:54:32.646Z,37.90
2022-11-28T05:57:00.600Z,37.50
2022-11-28T05:59:28.507Z,38.40
2022-11-28T06:01:56.369Z,39.50
2022-11-28T06:04:24.238Z,39.00
2022-11-28T06:06:52.026Z,40.60
2022-11-28T06:09:24.547Z,40.50
2022-11-28T06:11:53.567Z,43.90
2022-11-28T06:14:21.296Z,42.80
2022-11-28T06:16:49.286Z,41.40
2022-11-28T06:19:17.899Z,42.50
2022-11-28T06:21:45.857Z,39.30
2022-11-28T06:24:13.586Z,40.50
2022-11-28T06:26:41.378Z,39.50
2022-11-28T06:29:09.077Z,39.50
2022-11-28T06:31:37.288Z,37.60
2022-11-28T06:34:05.074Z,37.00
2022-11-28T06:36:33.458Z,35.40
2022-11-28T06:39:01.271Z,35.50
2022-11-28T06:41:29.211Z,32.70
2022-11-28T06:43:57.210Z,32.50
2022-11-28T06:46:25.106Z,30.70
2022-11-28T06:48:55.484Z,30.70
2022-11-28T06:51:23.323Z,32.50
2022-11-28T06:53:51.172Z,31.60
2022-11-28T06:56:20.430Z,31.40
2022-11-28T06:58:55.119Z,32.10
2022-11-28T07:01:24.932Z,34.30
2022-11-28T07:03:54.463Z,33.90
2022-11-28T07:06:24.470Z,35.20
2022-11-28T07:08:53.903Z,37.10
2022-11-28T07:11:24.606Z,36.00
2022-11-28T07:13:54.106Z,36.10
2022-11-28T07:16:35.443Z,36.10
2022-11-28T07:19:05.189Z,34.50
2022-11-28T07:21:37.063Z,35.60
2022-11-28T07:24:06.379Z,34.80
2022-11-28T07:26:38.390Z,33.90
2022-11-28T07:29:07.530Z,35.60
2022-11-28T07:31:40.258Z,35.30
2022-11-28T07:34:10.653Z,34.20
2022-11-28T07:36:47.375Z,37.10
2022-11-28T07:39:18.539Z,31.70
2022-11-28T07:41:51.063Z,31.20
2022-11-28T07:44:34.628Z,32.10
2022-11-28T07:47:03.030Z,29.70
2022-11-28T07:49:48.904Z,30.10
2022-11-28T07:52:21.065Z,30.80
2022-11-28T07:54:50.319Z,30.00
2022-11-28T07:57:19.243Z,30.80
2022-11-28T07:59:47.292Z,29.20
2022-11-28T08:02:15.942Z,30.10
2022-11-28T08:04:49.585Z,29.70
2022-11-28T08:07:20.767Z,32.50
2022-11-28T08:09:48.742Z,33.50
2022-11-28T08:12:17.239Z,31.70
2022-11-28T08:14:45.753Z,26.20
2022-11-28T08:17:13.765Z,28.60
2022-11-28T08:19:42.531Z,26.60
2022-11-28T08:22:12.040Z,24.70
2022-11-28T08:24:44.984Z,21.80
2022-11-28T08:27:14.227Z,20.30
2022-11-28T08:29:42.559Z,21.60
2022-11-28T08:32:11.005Z,21.60
2022-11-28T08:34:40.374Z,20.20
2022-11-28T08:37:08.290Z,20.00
2022-11-28T08:39:36.178Z,21.90
2022-11-28T08:42:04.191Z,25.40
2022-11-28T08:44:32.187Z,24.80
2022-11-28T08:47:00.414Z,25.00
2022-11-28T08:49:28.209Z,27.80
2022-11-28T08:51:55.964Z,27.10
2022-11-28T08:54:23.632Z,28.40
2022-11-28T08:56:51.420Z,24.30
2022-11-28T08:59:19.184Z,22.70
2022-11-28T09:01:47.060Z,25.40
2022-11-28T09:04:15.054Z,24.10
2022-11-28T09:06:42.770Z,22.20
2022-11-28T09:09:10.917Z,23.30
2022-11-28T09:11:39.119Z,23.30
2022-11-28T09:14:07.516Z,24.90
2022-11-28T09:16:37.430Z,24.90
2022-11-28T09:19:09.253Z,23.90
2022-11-28T09:21:37.212Z,21.60
2022-11-28T09:24:05.521Z,20.50
2022-11-28T09:26:35.793Z,20.20
2022-11-28T09:29:03.582Z,18.00
2022-11-28T09:31:31.379Z,19.10
2022-11-28T09:34:03.697Z,16.50
2022-11-28T09:36:51.005Z,16.80
2022-11-28T09:40:12.521Z,15.20
2022-11-28T09:42:51.554Z,14.50
2022-11-28T09:45:24.642Z,15.30
2022-11-28T09:47:58.018Z,14.60
2022-11-28T09:50:30.549Z,11.40
2022-11-28T09:53:09.368Z,11.20
2022-11-28T09:56:09.225Z,12.30
2022-11-28T10:20:57.453Z,7.70
2022-11-28T10:23:49.449Z,8.60
2022-11-28T10:26:36.547Z,8.60
2022-11-28T10:29:49.167Z,10.60
2022-11-28T10:36:15.717Z,8.50
2022-11-28T10:39:32.718Z,9.90
2022-11-28T10:42:22.338Z,9.90
2022-11-28T10:45:48.296Z,9.90
2022-11-28T10:48:40.339Z,10.60
2022-11-28T10:51:24.651Z,10.10
2022-11-28T10:54:19.146Z,8.80
2022-11-28T10:57:10.021Z,10.10
2022-11-28T11:00:01.948Z,9.10
2022-11-28T11:02:40.867Z,9.20
2022-11-28T11:05:16.803Z,10.20
2022-11-28T11:08:00.620Z,9.60
2022-11-28T11:10:58.376Z,9.60
2022-11-28T11:13:55.885Z,9.20
2022-11-28T11:16:24.142Z,7.60
2022-11-28T11:18:55.875Z,9.50
2022-11-28T11:21:26.487Z,10.60
2022-11-28T11:24:15.818Z,10.50
2022-11-28T11:26:48.855Z,10.20
2022-11-28T11:29:35.519Z,9.40
2022-11-28T11:32:06.555Z,10.40
2022-11-28T11:34:42.956Z,10.50
2022-11-28T11:37:44.539Z,10.70
2022-11-28T11:40:25.755Z,10.10
2022-11-28T11:42:57.944Z,10.80
2022-11-28T11:45:38.019Z,10.80
2022-11-28T11:48:05.939Z,11.30
2022-11-28T11:50:33.743Z,10.40
2022-11-28T11:53:11.580Z,11.30
2022-11-28T11:55:52.559Z,10.40
2022-11-28T11:58:29.914Z,10.60
2022-11-28T12:01:37.509Z,11.50
2022-11-28T12:07:35.152Z,11.00
2022-11-28T12:10:57.314Z,9.20
2022-11-28T12:13:47.310Z,9.90
2022-11-28T12:17:00.611Z,10.80
2022-11-28T12:20:33.300Z,9.50
2022-11-28T12:23:36.420Z,9.80
2022-11-28T12:27:39.399Z,10.00
2022-11-28T12:30:24.560Z,9.80
2022-11-28T12:33:23.575Z,10.20
2022-11-28T12:36:13.223Z,10.90
2022-11-28T12:39:00.351Z,9.30
2022-11-28T12:41:52.204Z,9.40
2022-11-28T12:44:36.010Z,9.50
2022-11-28T12:47:36.008Z,10.50
2022-11-28T12:50:26.656Z,10.00
2022-11-28T12:53:17.028Z,9.90
2022-11-28T12:56:03.575Z,10.40
2022-11-28T12:58:43.838Z,9.90
2022-11-28T13:01:37.769Z,10.00
2022-11-28T13:04:57.852Z,9.50
2022-11-28T13:07:40.965Z,9.70
2022-11-28T13:10:47.269Z,10.20
2022-11-28T13:13:23.941Z,10.00
2022-11-28T13:16:08.082Z,11.20
2022-11-28T13:18:48.787Z,11.50
2022-11-28T13:21:37.730Z,11.10
2022-11-28T13:24:18.340Z,10.50
2022-11-28T13:27:00.412Z,11.80
2022-11-28T13:29:48.019Z,10.70
2022-11-28T13:32:35.478Z,10.30
2022-11-28T14:13:48.180Z,12.50
2022-11-28T14:16:39.604Z,11.40
2022-11-28T14:19:18.234Z,12.20
2022-11-28T14:22:00.622Z,11.80
2022-11-28T14:24:49.429Z,12.40
2022-11-28T14:27:29.254Z,10.80
2022-11-28T14:29:58.831Z,10.90
2022-11-28T14:32:35.695Z,10.80
2022-11-28T14:35:06.967Z,11.10
2022-11-28T14:37:48.439Z,11.00
2022-11-28T14:40:52.387Z,11.20
2022-11-28T14:43:30.979Z,10.20
2022-11-28T14:46:22.297Z,10.70
2022-11-28T14:49:15.192Z,10.00
2022-11-28T14:52:37.231Z,9.90
2022-11-28T14:55:18.376Z,9.20
2022-11-28T14:58:03.052Z,10.00
2022-11-28T15:00:47.247Z,9.70
2022-11-28T15:03:55.012Z,9.60
2022-11-28T15:06:32.033Z,9.00
2022-11-28T15:09:12.906Z,8.90
2022-11-28T15:11:58.765Z,10.10
2022-11-28T15:14:28.964Z,8.90
2022-11-28T15:17:02.117Z,9.10
2022-11-28T15:19:38.549Z,9.60
2022-11-28T15:22:06.412Z,10.60
2022-11-28T15:24:37.521Z,9.00
2022-11-28T15:27:26.206Z,9.10
2022-11-28T15:29:57.383Z,8.80
2022-11-28T15:32:27.625Z,9.00
2022-11-28T15:35:00.925Z,9.50
2022-11-28T15:37:32.354Z,10.10
2022-11-28T15:40:04.338Z,9.90
2022-11-28T15:42:35.067Z,9.40
2022-11-28T15:45:11.098Z,10.10
2022-11-28T15:47:40.032Z,10.00
2022-11-28T15:50:18.311Z,10.10
2022-11-28T15:52:58.451Z,8.70
2022-11-28T15:55:30.654Z,9.90
2022-11-28T15:58:20.011Z,12.20
2022-11-28T16:00:56.482Z,11.90
2022-11-28T16:03:28.122Z,11.20
2022-11-28T16:05:58.342Z,11.00
2022-11-28T16:08:34.622Z,10.00
2022-11-28T16:11:05.121Z,10.20
2022-11-28T16:13:33.635Z,10.80
2022-11-28T16:16:04.348Z,10.70
2022-11-28T16:18:32.537Z,10.20
2022-11-28T16:21:01.854Z,9.90
2022-11-28T16:23:35.398Z,10.40
2022-11-28T16:26:08.229Z,9.70
2022-11-28T16:28:38.951Z,10.20
2022-11-28T16:31:23.772Z,10.00
2022-11-28T16:33:52.157Z,9.90
2022-11-28T16:36:24.860Z,10.90
2022-11-28T16:39:04.480Z,10.20
2022-11-28T16:41:33.087Z,9.60
2022-11-28T16:44:05.114Z,9.80
2022-11-28T16:46:38.168Z,9.90
2022-11-28T16:49:33.696Z,8.80
2022-11-28T16:52:40.824Z,9.50
2022-11-28T16:55:40.904Z,10.40
2022-11-28T16:58:15.495Z,11.10
2022-11-28T17:00:59.310Z,11.70
2022-11-28T17:03:44.647Z,11.70
2022-11-28T17:06:17.091Z,12.30
2022-11-28T17:08:44.924Z,11.60
2022-11-28T17:11:15.215Z,11.30
2022-11-28T17:13:43.247Z,12.20
2022-11-28T17:16:24.096Z,11.80
2022-11-28T17:18:52.233Z,11.70
2022-11-28T17:21:33.473Z,12.40
2022-11-28T17:24:01.911Z,11.40
2022-11-28T17:26:29.751Z,11.80
2022-11-28T17:28:59.180Z,10.90
2022-11-28T17:31:26.961Z,11.80
2022-11-28T17:33:54.629Z,11.60
2022-11-28T17:36:22.379Z,12.70
2022-11-28T17:38:50.090Z,11.80
2022-11-28T17:41:18.279Z,12.90
2022-11-28T17:43:45.965Z,14.20
2022-11-28T17:46:14.511Z,14.80
2022-11-28T17:48:42.365Z,16.00
2022-11-28T17:51:10.718Z,16.00
2022-11-28T17:53:38.645Z,16.00
2022-11-28T17:56:06.717Z,16.80
2022-11-28T17:58:34.419Z,16.70
2022-11-28T18:01:02.397Z,17.70
2022-11-28T18:03:30.207Z,17.40
2022-11-28T18:05:58.163Z,16.90
2022-11-28T18:08:26.007Z,15.80
2022-11-28T18:11:06.683Z,13.80
2022-11-28T18:13:34.731Z,12.40
2022-11-28T18:16:03.383Z,13.00
2022-11-28T18:18:32.165Z,13.60
2022-11-28T18:21:01.044Z,14.80
2022-11-28T18:23:29.043Z,15.30
2022-11-28T18:25:57.580Z,14.80
2022-11-28T18:28:25.390Z,15.40
2022-11-28T18:30:53.893Z,15.80
2022-11-28T18:33:21.621Z,15.40
2022-11-28T18:35:49.460Z,17.40
2022-11-28T18:38:17.237Z,16.30
2022-11-28T18:40:45.085Z,15.70
2022-11-28T18:43:12.898Z,17.20
2022-11-28T18:45:41.032Z,17.20
2022-11-28T18:48:08.717Z,16.40
2022-11-28T18:50:36.432Z,16.40
2022-11-28T18:53:04.467Z,15.80
2022-11-28T18:55:32.619Z,15.20
2022-11-28T18:58:00.478Z,15.20
2022-11-28T19:00:28.651Z,15.60
2022-11-28T19:02:56.402Z,13.70
2022-11-28T19:05:24.128Z,13.40
2022-11-28T19:07:52.683Z,13.20
2022-11-28T19:10:20.977Z,13.30
2022-11-28T19:12:48.778Z,13.40
2022-11-28T19:15:17.139Z,13.40
2022-11-28T19:17:45.102Z,13.40
2022-11-28T19:20:14.320Z,13.60
2022-11-28T19:22:42.006Z,14.10
2022-11-28T19:25:09.781Z,14.20
2022-11-28T19:27:37.568Z,15.20
2022-11-28T19:30:06.432Z,14.60
2022-11-28T19:32:36.291Z,15.40
2022-11-28T19:35:04.706Z,16.30
2022-11-28T19:37:32.496Z,18.60
2022-11-28T19:40:02.799Z,18.60
2022-11-28T19:42:32.015Z,19.20
2022-11-28T19:44:59.698Z,17.80
2022-11-28T19:47:28.955Z,21.30
2022-11-28T19:49:57.028Z,23.20
2022-11-28T19:52:25.206Z,22.20
2022-11-28T19:54:52.996Z,21.10
2022-11-28T19:57:20.862Z,20.90
2022-11-28T19:59:51.156Z,20.80
2022-11-28T20:02:21.639Z,21.40
2022-11-28T20:04:49.554Z,20.10
2022-11-28T20:07:17.420Z,20.70
2022-11-28T20:09:45.552Z,20.20
2022-11-28T20:12:15.809Z,21.30
2022-11-28T20:14:43.521Z,20.20
2022-11-28T20:17:12.145Z,21.30
2022-11-28T20:19:39.840Z,21.60
2022-11-28T20:22:07.903Z,20.40
2022-11-28T20:24:35.895Z,19.30
2022-11-28T20:27:03.680Z,20.20
2022-11-28T20:29:31.629Z,20.90
2022-11-28T20:31:59.532Z,20.20
2022-11-28T20:34:27.622Z,18.90
2022-11-28T20:36:55.744Z,18.10
2022-11-28T20:39:24.323Z,17.30
2022-11-28T20:41:52.091Z,18.00
2022-11-28T20:44:20.324Z,16.90
2022-11-28T20:46:49.836Z,15.90
2022-11-28T20:49:18.354Z,16.30
2022-11-28T20:51:46.164Z,15.90
2022-11-28T20:54:14.358Z,16.60
2022-11-28T20:57:19.250Z,16.80
2022-11-28T20:59:32.238Z,15.40
2022-11-28T21:02:00.007Z,15.00
2022-11-28T21:04:27.744Z,16.10
2022-11-28T21:06:55.917Z,16.20
2022-11-28T21:09:23.783Z,16.70
2022-11-28T21:11:57.592Z,15.40
2022-11-28T21:14:27.456Z,16.20
2022-11-28T21:16:56.185Z,16.60
2022-11-28T21:19:24.000Z,15.90
2022-11-28T21:21:51.846Z,15.20
2022-11-28T21:24:19.978Z,16.90
2022-11-28T21:26:52.963Z,15.70
2022-11-28T21:29:22.921Z,16.20
2022-11-28T21:31:50.895Z,16.90
2022-11-28T21:34:19.222Z,17.00
2022-11-28T21:36:47.390Z,16.70
2022-11-28T21:39:19.808Z,16.60
2022-11-28T21:41:48.032Z,15.80
2022-11-28T21:44:15.869Z,17.20
2022-11-28T21:46:43.582Z,18.40
2022-11-28T21:49:12.686Z,19.80
2022-11-28T21:51:40.749Z,18.10
2022-11-28T21:54:11.083Z,20.80
2022-11-28T21:56:39.085Z,17.50
2022-11-28T21:59:06.884Z,16.60
2022-11-28T22:01:35.120Z,20.00
2022-11-28T22:04:04.650Z,17.40
2022-11-28T22:06:32.941Z,16.40
2022-11-28T22:09:08.791Z,14.70
2022-11-28T22:11:38.829Z,13.20
2022-11-28T22:14:06.828Z,13.00
2022-11-28T22:16:35.301Z,13.50
2022-11-28T22:19:04.233Z,12.70
2022-11-28T22:24:21.306Z,13.50
2022-11-28T22:26:50.184Z,14.00
2022-11-28T22:29:19.161Z,12.70
2022-11-28T22:31:47.047Z,13.00
2022-11-28T22:34:15.267Z,13.60
2022-11-28T22:36:43.170Z,13.40
2022-11-28T22:39:11.706Z,12.60
2022-11-28T22:41:39.957Z,14.10
2022-11-28T22:44:11.558Z,13.40
2022-11-28T22:46:39.862Z,14.40
2022-11-28T22:49:10.541Z,13.90
2022-11-28T22:51:39.212Z,13.50
2022-11-28T22:54:07.483Z,15.40
2022-11-28T22:56:35.279Z,15.80
2022-11-28T22:59:05.075Z,15.00
2022-11-28T23:01:35.279Z,16.20
2022-11-28T23:04:03.319Z,15.10
2022-11-28T23:06:34.314Z,16.30
2022-11-28T23:09:06.464Z,16.10
2022-11-28T23:11:36.955Z,17.00
2022-11-28T23:14:06.434Z,16.20
2022-11-28T23:16:37.612Z,16.00
2022-11-28T23:19:13.671Z,16.40
2022-11-28T23:21:43.652Z,15.30
2022-11-28T23:24:14.604Z,16.00
2022-11-28T23:26:43.846Z,16.30
2022-11-28T23:29:13.942Z,16.70
2022-11-28T23:31:44.303Z,17.90
2022-11-28T23:34:12.433Z,18.10
2022-11-28T23:36:43.102Z,18.40
2022-11-28T23:39:15.710Z,17.70
2022-11-28T23:41:43.952Z,16.20
2022-11-28T23:44:13.407Z,14.40
2022-11-28T23:46:41.988Z,15.40
2022-11-28T23:49:10.649Z,14.30
2022-11-28T23:51:40.495Z,13.60
2022-11-28T23:54:10.198Z,13.00
2022-11-28T23:56:40.242Z,12.30
2022-11-28T23:59:10.507Z,13.00
